createdAt,value
2022-10-02T00:05:07.520Z,11.10
2022-10-02T00:15:37.545Z,10.95
2022-10-02T00:25:50.454Z,11.02
2022-10-02T00:36:02.069Z,11.01
2022-10-02T00:46:25.316Z,10.97
2022-10-02T00:56:52.728Z,10.81
2022-10-02T01:06:55.325Z,10.83
2022-10-02T01:16:57.690Z,10.93
2022-10-02T01:27:00.009Z,11.02
2022-10-02T01:37:03.147Z,11.03
2022-10-02T01:47:09.740Z,11.01
2022-10-02T01:57:30.242Z,10.95
2022-10-02T02:07:35.689Z,10.85
2022-10-02T02:17:50.922Z,10.87
2022-10-02T02:27:57.875Z,10.61
2022-10-02T02:38:11.487Z,10.52
2022-10-02T02:48:37.190Z,10.29
2022-10-02T02:59:01.034Z,10.39
2022-10-02T03:09:06.200Z,10.37
2022-10-02T03:19:26.006Z,10.34
2022-10-02T03:29:53.262Z,10.35
2022-10-02T03:40:01.721Z,10.39
2022-10-02T03:50:04.173Z,10.56
2022-10-02T04:00:13.087Z,10.74
2022-10-02T04:10:24.473Z,10.51
2022-10-02T04:20:45.819Z,10.52
2022-10-02T04:30:48.057Z,10.50
2022-10-02T04:41:08.270Z,10.45
2022-10-02T04:51:30.748Z,10.32
2022-10-02T05:02:01.553Z,10.27
2022-10-02T05:12:42.442Z,10.25
2022-10-02T05:23:02.792Z,10.32
2022-10-02T05:33:13.992Z,10.42
2022-10-02T05:43:37.924Z,10.46
2022-10-02T05:53:46.663Z,10.56
2022-10-02T06:03:56.013Z,10.57
2022-10-02T06:14:06.238Z,10.61
2022-10-02T06:24:16.915Z,10.92
2022-10-02T06:34:19.716Z,11.03
2022-10-02T06:44:50.104Z,11.01
2022-10-02T06:55:21.331Z,11.29
2022-10-02T07:05:32.664Z,11.49
2022-10-02T07:15:56.212Z,11.74
2022-10-02T07:26:37.874Z,11.90
2022-10-02T07:36:55.219Z,12.31
2022-10-02T07:47:13.049Z,12.46
2022-10-02T07:57:42.472Z,12.48
2022-10-02T08:07:48.646Z,13.01
2022-10-02T08:17:54.249Z,13.36
2022-10-02T08:28:04.584Z,13.39
2022-10-02T08:38:28.372Z,13.43
2022-10-02T08:48:42.762Z,13.45
2022-10-02T08:59:19.150Z,13.69
2022-10-02T09:09:34.124Z,13.94
2022-10-02T09:20:07.155Z,14.34
2022-10-02T09:30:27.289Z,14.49
2022-10-02T09:40:48.879Z,14.57
2022-10-02T09:51:07.406Z,14.99
2022-10-02T10:01:31.451Z,15.10
2022-10-02T10:11:39.698Z,15.19
2022-10-02T10:22:26.879Z,15.21
2022-10-02T10:32:48.262Z,15.66
2022-10-02T10:43:11.636Z,14.99
2022-10-02T10:53:30.346Z,15.43
2022-10-02T11:03:58.441Z,15.56
2022-10-02T11:14:19.791Z,15.76
2022-10-02T11:24:43.765Z,15.89
2022-10-02T11:35:30.326Z,16.39
2022-10-02T11:46:03.531Z,16.43
2022-10-02T11:56:22.773Z,16.36
2022-10-02T12:06:42.236Z,17.04
2022-10-02T12:16:48.988Z,16.51
2022-10-02T12:27:10.320Z,15.38
2022-10-02T12:37:42.773Z,14.92
2022-10-02T12:48:03.681Z,15.13
2022-10-02T12:58:27.073Z,15.15
2022-10-02T13:08:43.166Z,15.42
2022-10-02T13:19:03.306Z,15.21
2022-10-02T13:29:21.501Z,14.42
2022-10-02T13:39:44.961Z,14.39
2022-10-02T13:50:07.785Z,14.26
2022-10-02T14:00:13.663Z,13.97
2022-10-02T14:10:39.673Z,13.88
2022-10-02T14:20:47.799Z,13.63
2022-10-02T14:31:00.006Z,13.96
2022-10-02T14:41:31.596Z,13.86
2022-10-02T14:51:45.797Z,13.41
2022-10-02T15:02:09.031Z,12.93
2022-10-02T15:12:16.285Z,12.82
2022-10-02T15:22:51.539Z,12.69
2022-10-02T15:33:07.437Z,12.62
2022-10-02T15:43:15.142Z,11.93
2022-10-02T15:53:23.376Z,11.36
2022-10-02T16:03:40.958Z,10.85
2022-10-02T16:13:51.562Z,10.49
2022-10-02T16:24:19.578Z,10.21
2022-10-02T16:34:55.866Z,9.96
2022-10-02T16:45:16.810Z,9.89
2022-10-02T16:55:48.888Z,10.08
2022-10-02T17:05:57.497Z,10.20
2022-10-02T17:16:07.608Z,10.06
2022-10-02T17:26:30.627Z,10.01
2022-10-02T17:36:47.964Z,9.99
2022-10-02T17:47:15.463Z,10.24
2022-10-02T17:57:44.091Z,10.25
2022-10-02T18:07:57.609Z,10.02
2022-10-02T18:18:41.655Z,9.78
2022-10-02T18:29:01.170Z,9.59
2022-10-02T18:39:25.336Z,9.52
2022-10-02T18:49:47.142Z,9.60
2022-10-02T19:00:02.730Z,9.99
2022-10-02T19:10:29.479Z,10.16
2022-10-02T19:20:42.623Z,10.31
2022-10-02T19:30:53.288Z,10.31
2022-10-02T19:41:00.509Z,10.33
2022-10-02T19:51:07.454Z,10.22
2022-10-02T20:01:19.065Z,10.21
2022-10-02T20:11:42.675Z,10.10
2022-10-02T20:21:49.668Z,9.90
2022-10-02T20:40:25.895Z,10.00
2022-10-02T20:50:41.474Z,10.15
2022-10-02T21:01:06.249Z,10.25
2022-10-02T21:11:17.508Z,10.27
2022-10-02T21:21:33.639Z,10.32
2022-10-02T21:31:43.629Z,10.21
2022-10-02T21:42:04.251Z,10.29
2022-10-02T21:52:31.158Z,10.26
2022-10-02T22:02:36.490Z,10.13
2022-10-02T22:13:03.753Z,10.19
2022-10-02T22:23:32.927Z,10.10
2022-10-02T22:33:58.478Z,10.13
2022-10-02T22:44:03.864Z,10.14
2022-10-02T22:54:20.714Z,10.16
2022-10-02T23:04:30.925Z,9.99
2022-10-02T23:14:51.283Z,10.08
2022-10-02T23:25:14.497Z,10.12
2022-10-02T23:35:32.632Z,10.09
2022-10-02T23:45:54.182Z,10.05
2022-10-02T23:56:14.723Z,9.88
